sensor_id;sensor_type;location;lat;lon;timestamp;P1;durP1;ratioP1;P2;durP2;ratioP2
34481;SDS011;20720;48.886;9.388;2023-09-19T00:02:17;2.70;;;0.75;;
34481;SDS011;20720;48.886;9.388;2023-09-19T00:04:43;2.47;;;0.75;;
34481;SDS011;20720;48.886;9.388;2023-09-19T00:07:08;1.70;;;0.70;;
34481;SDS011;20720;48.886;9.388;2023-09-19T00:09:34;2.05;;;0.55;;
34481;SDS011;20720;48.886;9.388;2023-09-19T00:12:04;2.10;;;0.63;;
34481;SDS011;20720;48.886;9.388;2023-09-19T00:14:34;3.60;;;0.95;;
34481;SDS011;20720;48.886;9.388;2023-09-19T00:17:00;1.35;;;0.70;;
34481;SDS011;20720;48.886;9.388;2023-09-19T00:19:30;1.45;;;0.60;;
34481;SDS011;20720;48.886;9.388;2023-09-19T00:21:57;1.30;;;0.60;;
34481;SDS011;20720;48.886;9.388;2023-09-19T00:24:22;3.97;;;0.70;;
34481;SDS011;20720;48.886;9.388;2023-09-19T00:26:48;1.52;;;0.63;;
34481;SDS011;20720;48.886;9.388;2023-09-19T00:29:13;1.67;;;0.60;;
34481;SDS011;20720;48.886;9.388;2023-09-19T00:31:43;1.70;;;0.57;;
34481;SDS011;20720;48.886;9.388;2023-09-19T00:34:08;2.25;;;0.70;;
34481;SDS011;20720;48.886;9.388;2023-09-19T00:36:35;1.95;;;0.60;;
34481;SDS011;20720;48.886;9.388;2023-09-19T00:39:04;2.65;;;0.68;;
34481;SDS011;20720;48.886;9.388;2023-09-19T00:41:33;1.70;;;0.88;;
34481;SDS011;20720;48.886;9.388;2023-09-19T00:44:00;2.95;;;0.75;;
34481;SDS011;20720;48.886;9.388;2023-09-19T00:46:27;1.50;;;0.77;;
34481;SDS011;20720;48.886;9.388;2023-09-19T00:48:52;2.05;;;0.60;;
34481;SDS011;20720;48.886;9.388;2023-09-19T00:51:17;3.13;;;0.82;;
34481;SDS011;20720;48.886;9.388;2023-09-19T00:53:46;1.55;;;0.65;;
34481;SDS011;20720;48.886;9.388;2023-09-19T00:56:12;1.73;;;0.70;;
34481;SDS011;20720;48.886;9.388;2023-09-19T00:58:37;2.38;;;0.82;;
34481;SDS011;20720;48.886;9.388;2023-09-19T01:01:03;1.30;;;0.70;;
34481;SDS011;20720;48.886;9.388;2023-09-19T01:03:32;2.45;;;0.82;;
34481;SDS011;20720;48.886;9.388;2023-09-19T01:05:59;3.08;;;0.55;;
34481;SDS011;20720;48.886;9.388;2023-09-19T01:08:25;2.08;;;0.70;;
34481;SDS011;20720;48.886;9.388;2023-09-19T01:10:55;1.70;;;0.70;;
34481;SDS011;20720;48.886;9.388;2023-09-19T01:13:32;2.13;;;0.52;;
34481;SDS011;20720;48.886;9.388;2023-09-19T01:16:14;3.05;;;0.75;;
34481;SDS011;20720;48.886;9.388;2023-09-19T01:18:47;1.33;;;0.65;;
34481;SDS011;20720;48.886;9.388;2023-09-19T01:21:28;3.00;;;0.93;;
34481;SDS011;20720;48.886;9.388;2023-09-19T01:24:14;2.20;;;0.55;;
34481;SDS011;20720;48.886;9.388;2023-09-19T01:30:14;2.00;;;0.60;;
34481;SDS011;20720;48.886;9.388;2023-09-19T01:32:47;2.30;;;0.80;;
34481;SDS011;20720;48.886;9.388;2023-09-19T01:35:17;1.70;;;0.80;;
34481;SDS011;20720;48.886;9.388;2023-09-19T01:37:43;1.65;;;0.63;;
34481;SDS011;20720;48.886;9.388;2023-09-19T01:40:10;1.48;;;0.63;;
34481;SDS011;20720;48.886;9.388;2023-09-19T01:45:35;1.50;;;0.50;;
34481;SDS011;20720;48.886;9.388;2023-09-19T01:48:19;4.10;;;0.70;;
34481;SDS011;20720;48.886;9.388;2023-09-19T01:51:11;1.70;;;0.70;;
34481;SDS011;20720;48.886;9.388;2023-09-19T01:56:32;1.88;;;0.45;;
34481;SDS011;20720;48.886;9.388;2023-09-19T01:59:04;1.75;;;0.55;;
34481;SDS011;20720;48.886;9.388;2023-09-19T02:01:35;1.92;;;0.60;;
34481;SDS011;20720;48.886;9.388;2023-09-19T02:04:02;1.25;;;0.50;;
34481;SDS011;20720;48.886;9.388;2023-09-19T02:06:29;1.85;;;0.60;;
34481;SDS011;20720;48.886;9.388;2023-09-19T02:08:54;2.83;;;0.70;;
34481;SDS011;20720;48.886;9.388;2023-09-19T02:11:20;1.63;;;0.60;;
34481;SDS011;20720;48.886;9.388;2023-09-19T02:13:45;1.15;;;0.50;;
34481;SDS011;20720;48.886;9.388;2023-09-19T02:16:11;1.85;;;0.50;;
34481;SDS011;20720;48.886;9.388;2023-09-19T02:18:37;3.20;;;0.75;;
34481;SDS011;20720;48.886;9.388;2023-09-19T02:21:04;1.48;;;0.50;;
34481;SDS011;20720;48.886;9.388;2023-09-19T02:23:31;1.58;;;0.60;;
34481;SDS011;20720;48.886;9.388;2023-09-19T02:25:58;2.50;;;0.98;;
34481;SDS011;20720;48.886;9.388;2023-09-19T02:28:25;1.27;;;0.60;;
34481;SDS011;20720;48.886;9.388;2023-09-19T02:30:55;1.45;;;0.52;;
34481;SDS011;20720;48.886;9.388;2023-09-19T02:33:21;1.50;;;0.52;;
34481;SDS011;20720;48.886;9.388;2023-09-19T02:35:46;1.23;;;0.50;;
34481;SDS011;20720;48.886;9.388;2023-09-19T02:38:12;2.00;;;0.88;;
34481;SDS011;20720;48.886;9.388;2023-09-19T02:40:37;3.40;;;0.60;;
34481;SDS011;20720;48.886;9.388;2023-09-19T02:43:03;3.08;;;0.60;;
34481;SDS011;20720;48.886;9.388;2023-09-19T02:45:29;1.30;;;0.57;;
34481;SDS011;20720;48.886;9.388;2023-09-19T02:47:55;3.65;;;0.70;;
34481;SDS011;20720;48.886;9.388;2023-09-19T02:50:20;2.55;;;0.65;;
34481;SDS011;20720;48.886;9.388;2023-09-19T02:52:47;2.13;;;0.60;;
34481;SDS011;20720;48.886;9.388;2023-09-19T02:55:13;1.48;;;0.50;;
34481;SDS011;20720;48.886;9.388;2023-09-19T02:57:45;0.75;;;0.40;;
34481;SDS011;20720;48.886;9.388;2023-09-19T03:00:11;1.42;;;0.70;;
34481;SDS011;20720;48.886;9.388;2023-09-19T03:02:37;1.65;;;0.68;;
34481;SDS011;20720;48.886;9.388;2023-09-19T03:05:04;0.95;;;0.50;;
34481;SDS011;20720;48.886;9.388;2023-09-19T03:07:31;2.50;;;0.68;;
34481;SDS011;20720;48.886;9.388;2023-09-19T03:09:57;2.75;;;0.77;;
34481;SDS011;20720;48.886;9.388;2023-09-19T03:12:22;2.35;;;0.60;;
34481;SDS011;20720;48.886;9.388;2023-09-19T03:14:47;1.00;;;0.50;;
34481;SDS011;20720;48.886;9.388;2023-09-19T03:17:13;1.70;;;0.40;;
34481;SDS011;20720;48.886;9.388;2023-09-19T03:19:39;1.85;;;0.65;;
34481;SDS011;20720;48.886;9.388;2023-09-19T03:22:05;1.95;;;0.60;;
34481;SDS011;20720;48.886;9.388;2023-09-19T03:24:30;1.70;;;0.43;;
34481;SDS011;20720;48.886;9.388;2023-09-19T03:26:56;1.02;;;0.50;;
34481;SDS011;20720;48.886;9.388;2023-09-19T03:29:22;1.88;;;0.80;;
34481;SDS011;20720;48.886;9.388;2023-09-19T03:31:47;1.63;;;0.45;;
34481;SDS011;20720;48.886;9.388;2023-09-19T03:34:13;1.70;;;0.50;;
34481;SDS011;20720;48.886;9.388;2023-09-19T03:36:38;2.47;;;0.70;;
34481;SDS011;20720;48.886;9.388;2023-09-19T03:39:04;1.88;;;0.80;;
34481;SDS011;20720;48.886;9.388;2023-09-19T03:41:30;0.80;;;0.40;;
34481;SDS011;20720;48.886;9.388;2023-09-19T03:43:56;2.75;;;0.80;;
34481;SDS011;20720;48.886;9.388;2023-09-19T03:46:21;1.63;;;0.60;;
34481;SDS011;20720;48.886;9.388;2023-09-19T03:48:47;0.95;;;0.50;;
34481;SDS011;20720;48.886;9.388;2023-09-19T03:51:12;1.98;;;0.50;;
34481;SDS011;20720;48.886;9.388;2023-09-19T03:53:37;3.65;;;0.85;;
34481;SDS011;20720;48.886;9.388;2023-09-19T03:56:03;3.65;;;0.50;;
34481;SDS011;20720;48.886;9.388;2023-09-19T03:58:28;1.33;;;0.60;;
34481;SDS011;20720;48.886;9.388;2023-09-19T04:00:56;3.20;;;0.68;;
34481;SDS011;20720;48.886;9.388;2023-09-19T04:03:23;1.83;;;0.68;;
34481;SDS011;20720;48.886;9.388;2023-09-19T04:05:49;2.88;;;0.57;;
34481;SDS011;20720;48.886;9.388;2023-09-19T04:08:15;0.98;;;0.50;;
34481;SDS011;20720;48.886;9.388;2023-09-19T04:10:44;1.98;;;0.70;;
34481;SDS011;20720;48.886;9.388;2023-09-19T04:13:10;1.75;;;0.70;;
34481;SDS011;20720;48.886;9.388;2023-09-19T04:15:35;2.55;;;0.60;;
34481;SDS011;20720;48.886;9.388;2023-09-19T04:18:02;1.77;;;0.73;;
34481;SDS011;20720;48.886;9.388;2023-09-19T04:20:28;1.48;;;0.70;;
34481;SDS011;20720;48.886;9.388;2023-09-19T04:22:53;1.92;;;0.73;;
34481;SDS011;20720;48.886;9.388;2023-09-19T04:25:19;2.83;;;0.90;;
34481;SDS011;20720;48.886;9.388;2023-09-19T04:27:45;4.35;;;0.80;;
34481;SDS011;20720;48.886;9.388;2023-09-19T04:30:11;3.67;;;0.90;;
34481;SDS011;20720;48.886;9.388;2023-09-19T04:32:38;1.92;;;0.63;;
34481;SDS011;20720;48.886;9.388;2023-09-19T04:35:07;3.92;;;1.00;;
34481;SDS011;20720;48.886;9.388;2023-09-19T04:37:40;2.08;;;0.70;;
34481;SDS011;20720;48.886;9.388;2023-09-19T04:40:09;4.03;;;1.10;;
34481;SDS011;20720;48.886;9.388;2023-09-19T04:42:39;3.35;;;0.77;;
34481;SDS011;20720;48.886;9.388;2023-09-19T04:45:05;1.80;;;0.70;;
34481;SDS011;20720;48.886;9.388;2023-09-19T04:47:32;1.77;;;0.80;;
34481;SDS011;20720;48.886;9.388;2023-09-19T04:49:57;3.55;;;0.90;;
34481;SDS011;20720;48.886;9.388;2023-09-19T04:52:24;2.22;;;0.90;;
34481;SDS011;20720;48.886;9.388;2023-09-19T04:54:49;1.48;;;0.80;;
34481;SDS011;20720;48.886;9.388;2023-09-19T04:57:14;2.13;;;1.00;;
34481;SDS011;20720;48.886;9.388;2023-09-19T04:59:40;5.80;;;1.35;;
34481;SDS011;20720;48.886;9.388;2023-09-19T05:02:06;2.75;;;1.10;;
34481;SDS011;20720;48.886;9.388;2023-09-19T05:04:33;2.28;;;0.95;;
34481;SDS011;20720;48.886;9.388;2023-09-19T05:06:58;1.63;;;0.95;;
34481;SDS011;20720;48.886;9.388;2023-09-19T05:09:23;2.78;;;0.90;;
34481;SDS011;20720;48.886;9.388;2023-09-19T05:11:49;2.17;;;0.80;;
34481;SDS011;20720;48.886;9.388;2023-09-19T05:14:16;1.73;;;0.90;;
34481;SDS011;20720;48.886;9.388;2023-09-19T05:16:41;2.38;;;0.95;;
34481;SDS011;20720;48.886;9.388;2023-09-19T05:19:07;2.58;;;0.90;;
34481;SDS011;20720;48.886;9.388;2023-09-19T05:21:36;1.77;;;0.90;;
34481;SDS011;20720;48.886;9.388;2023-09-19T05:24:03;2.88;;;0.90;;
34481;SDS011;20720;48.886;9.388;2023-09-19T05:26:31;1.58;;;0.88;;
34481;SDS011;20720;48.886;9.388;2023-09-19T05:28:56;1.73;;;0.88;;
34481;SDS011;20720;48.886;9.388;2023-09-19T05:31:22;3.83;;;1.00;;
34481;SDS011;20720;48.886;9.388;2023-09-19T05:33:48;3.60;;;1.10;;
34481;SDS011;20720;48.886;9.388;2023-09-19T05:36:14;2.75;;;1.10;;
34481;SDS011;20720;48.886;9.388;2023-09-19T05:38:41;1.90;;;0.80;;
34481;SDS011;20720;48.886;9.388;2023-09-19T05:41:07;3.22;;;1.00;;
34481;SDS011;20720;48.886;9.388;2023-09-19T05:43:34;4.05;;;1.17;;
34481;SDS011;20720;48.886;9.388;2023-09-19T05:46:02;3.05;;;0.88;;
34481;SDS011;20720;48.886;9.388;2023-09-19T05:48:28;2.97;;;0.90;;
34481;SDS011;20720;48.886;9.388;2023-09-19T05:50:53;13.60;;;1.80;;
34481;SDS011;20720;48.886;9.388;2023-09-19T05:53:19;3.60;;;1.20;;
34481;SDS011;20720;48.886;9.388;2023-09-19T05:55:44;5.47;;;1.13;;
34481;SDS011;20720;48.886;9.388;2023-09-19T05:58:10;2.33;;;1.00;;
34481;SDS011;20720;48.886;9.388;2023-09-19T06:00:39;3.97;;;1.05;;
34481;SDS011;20720;48.886;9.388;2023-09-19T06:03:06;3.90;;;1.48;;
34481;SDS011;20720;48.886;9.388;2023-09-19T06:05:33;2.55;;;1.10;;
34481;SDS011;20720;48.886;9.388;2023-09-19T06:07:58;5.93;;;1.50;;
34481;SDS011;20720;48.886;9.388;2023-09-19T06:10:32;3.70;;;1.10;;
34481;SDS011;20720;48.886;9.388;2023-09-19T06:12:57;2.85;;;1.15;;
34481;SDS011;20720;48.886;9.388;2023-09-19T06:15:23;2.13;;;1.10;;
34481;SDS011;20720;48.886;9.388;2023-09-19T06:17:50;3.40;;;1.30;;
34481;SDS011;20720;48.886;9.388;2023-09-19T06:20:16;2.95;;;1.30;;
34481;SDS011;20720;48.886;9.388;2023-09-19T06:22:42;2.50;;;1.08;;
34481;SDS011;20720;48.886;9.388;2023-09-19T06:25:13;4.60;;;1.25;;
34481;SDS011;20720;48.886;9.388;2023-09-19T06:27:44;2.92;;;1.17;;
34481;SDS011;20720;48.886;9.388;2023-09-19T06:30:10;3.00;;;1.10;;
34481;SDS011;20720;48.886;9.388;2023-09-19T06:32:42;1.67;;;1.10;;
34481;SDS011;20720;48.886;9.388;2023-09-19T06:35:13;3.03;;;1.15;;
34481;SDS011;20720;48.886;9.388;2023-09-19T06:37:40;2.80;;;1.40;;
34481;SDS011;20720;48.886;9.388;2023-09-19T06:40:10;3.60;;;1.33;;
34481;SDS011;20720;48.886;9.388;2023-09-19T06:42:40;2.78;;;1.30;;
34481;SDS011;20720;48.886;9.388;2023-09-19T06:45:06;3.28;;;1.40;;
34481;SDS011;20720;48.886;9.388;2023-09-19T06:47:32;3.97;;;1.50;;
34481;SDS011;20720;48.886;9.388;2023-09-19T06:49:57;3.08;;;1.27;;
34481;SDS011;20720;48.886;9.388;2023-09-19T06:52:22;2.45;;;1.45;;
34481;SDS011;20720;48.886;9.388;2023-09-19T06:54:48;4.55;;;1.63;;
34481;SDS011;20720;48.886;9.388;2023-09-19T06:57:15;4.80;;;1.40;;
34481;SDS011;20720;48.886;9.388;2023-09-19T06:59:41;3.35;;;1.52;;
34481;SDS011;20720;48.886;9.388;2023-09-19T07:02:06;3.50;;;1.42;;
34481;SDS011;20720;48.886;9.388;2023-09-19T07:04:32;3.05;;;1.50;;
34481;SDS011;20720;48.886;9.388;2023-09-19T07:06:57;3.22;;;1.60;;
34481;SDS011;20720;48.886;9.388;2023-09-19T07:09:23;3.70;;;1.70;;
34481;SDS011;20720;48.886;9.388;2023-09-19T07:11:48;4.30;;;1.42;;
34481;SDS011;20720;48.886;9.388;2023-09-19T07:14:15;2.95;;;1.30;;
34481;SDS011;20720;48.886;9.388;2023-09-19T07:16:41;2.42;;;1.50;;
34481;SDS011;20720;48.886;9.388;2023-09-19T07:19:09;4.53;;;1.40;;
34481;SDS011;20720;48.886;9.388;2023-09-19T07:21:34;7.55;;;1.55;;
34481;SDS011;20720;48.886;9.388;2023-09-19T07:24:04;3.13;;;1.58;;
34481;SDS011;20720;48.886;9.388;2023-09-19T07:26:29;5.32;;;1.25;;
34481;SDS011;20720;48.886;9.388;2023-09-19T07:28:56;4.57;;;1.40;;
34481;SDS011;20720;48.886;9.388;2023-09-19T07:31:22;3.00;;;1.17;;
34481;SDS011;20720;48.886;9.388;2023-09-19T07:33:47;1.85;;;1.10;;
34481;SDS011;20720;48.886;9.388;2023-09-19T07:36:13;3.50;;;1.25;;
34481;SDS011;20720;48.886;9.388;2023-09-19T07:38:39;3.63;;;1.27;;
34481;SDS011;20720;48.886;9.388;2023-09-19T07:41:05;3.60;;;1.30;;
34481;SDS011;20720;48.886;9.388;2023-09-19T07:43:31;2.67;;;1.20;;
34481;SDS011;20720;48.886;9.388;2023-09-19T07:45:57;4.25;;;1.67;;
34481;SDS011;20720;48.886;9.388;2023-09-19T07:48:23;3.58;;;1.15;;
34481;SDS011;20720;48.886;9.388;2023-09-19T07:50:50;5.07;;;1.38;;
34481;SDS011;20720;48.886;9.388;2023-09-19T07:53:16;3.55;;;1.30;;
34481;SDS011;20720;48.886;9.388;2023-09-19T07:55:42;3.88;;;1.50;;
34481;SDS011;20720;48.886;9.388;2023-09-19T07:58:08;3.35;;;1.30;;
34481;SDS011;20720;48.886;9.388;2023-09-19T08:00:34;2.78;;;1.35;;
34481;SDS011;20720;48.886;9.388;2023-09-19T08:03:00;5.05;;;1.17;;
34481;SDS011;20720;48.886;9.388;2023-09-19T08:05:25;3.17;;;0.85;;
34481;SDS011;20720;48.886;9.388;2023-09-19T08:07:51;3.45;;;1.15;;
34481;SDS011;20720;48.886;9.388;2023-09-19T08:10:17;2.40;;;1.00;;
34481;SDS011;20720;48.886;9.388;2023-09-19T08:12:45;3.40;;;1.30;;
34481;SDS011;20720;48.886;9.388;2023-09-19T08:15:18;5.22;;;1.52;;
34481;SDS011;20720;48.886;9.388;2023-09-19T08:17:45;3.58;;;0.90;;
34481;SDS011;20720;48.886;9.388;2023-09-19T08:20:11;3.05;;;0.90;;
34481;SDS011;20720;48.886;9.388;2023-09-19T08:22:48;4.30;;;1.10;;
34481;SDS011;20720;48.886;9.388;2023-09-19T08:25:19;3.33;;;1.10;;
34481;SDS011;20720;48.886;9.388;2023-09-19T08:27:45;2.30;;;0.95;;
34481;SDS011;20720;48.886;9.388;2023-09-19T08:30:19;3.75;;;1.15;;
34481;SDS011;20720;48.886;9.388;2023-09-19T08:32:49;2.65;;;0.93;;
34481;SDS011;20720;48.886;9.388;2023-09-19T08:35:14;3.83;;;1.02;;
34481;SDS011;20720;48.886;9.388;2023-09-19T08:37:40;2.45;;;1.00;;
34481;SDS011;20720;48.886;9.388;2023-09-19T08:40:05;8.57;;;1.65;;
34481;SDS011;20720;48.886;9.388;2023-09-19T08:42:53;2.17;;;1.00;;
34481;SDS011;20720;48.886;9.388;2023-09-19T08:45:20;2.97;;;0.80;;
34481;SDS011;20720;48.886;9.388;2023-09-19T08:47:55;3.00;;;0.80;;
34481;SDS011;20720;48.886;9.388;2023-09-19T08:50:29;5.78;;;1.10;;
34481;SDS011;20720;48.886;9.388;2023-09-19T08:52:56;1.67;;;0.70;;
34481;SDS011;20720;48.886;9.388;2023-09-19T08:55:28;3.53;;;0.80;;
34481;SDS011;20720;48.886;9.388;2023-09-19T08:58:06;1.70;;;0.70;;
34481;SDS011;20720;48.886;9.388;2023-09-19T09:00:35;1.25;;;0.70;;
34481;SDS011;20720;48.886;9.388;2023-09-19T09:03:01;1.92;;;0.70;;
34481;SDS011;20720;48.886;9.388;2023-09-19T09:05:28;2.63;;;0.63;;
34481;SDS011;20720;48.886;9.388;2023-09-19T09:07:55;2.10;;;0.60;;
34481;SDS011;20720;48.886;9.388;2023-09-19T09:10:21;1.75;;;0.70;;
34481;SDS011;20720;48.886;9.388;2023-09-19T09:12:51;2.42;;;0.70;;
34481;SDS011;20720;48.886;9.388;2023-09-19T09:15:18;2.58;;;0.90;;
34481;SDS011;20720;48.886;9.388;2023-09-19T09:17:46;3.08;;;0.80;;
34481;SDS011;20720;48.886;9.388;2023-09-19T09:20:13;1.23;;;0.60;;
34481;SDS011;20720;48.886;9.388;2023-09-19T09:22:38;2.03;;;0.90;;
34481;SDS011;20720;48.886;9.388;2023-09-19T09:25:09;3.20;;;1.08;;
34481;SDS011;20720;48.886;9.388;2023-09-19T09:27:34;3.00;;;1.10;;
34481;SDS011;20720;48.886;9.388;2023-09-19T09:29:59;1.83;;;0.75;;
34481;SDS011;20720;48.886;9.388;2023-09-19T09:32:25;2.40;;;0.93;;
34481;SDS011;20720;48.886;9.388;2023-09-19T09:34:54;2.70;;;0.80;;
34481;SDS011;20720;48.886;9.388;2023-09-19T09:37:21;2.55;;;0.80;;
34481;SDS011;20720;48.886;9.388;2023-09-19T09:40:20;1.88;;;0.50;;
34481;SDS011;20720;48.886;9.388;2023-09-19T09:42:41;2.35;;;0.95;;
34481;SDS011;20720;48.886;9.388;2023-09-19T09:45:13;1.77;;;0.82;;
34481;SDS011;20720;48.886;9.388;2023-09-19T09:47:41;1.92;;;0.80;;
34481;SDS011;20720;48.886;9.388;2023-09-19T09:50:16;4.38;;;1.20;;
34481;SDS011;20720;48.886;9.388;2023-09-19T09:52:54;3.22;;;1.05;;
34481;SDS011;20720;48.886;9.388;2023-09-19T09:55:25;2.30;;;1.10;;
34481;SDS011;20720;48.886;9.388;2023-09-19T09:57:58;1.45;;;0.80;;
34481;SDS011;20720;48.886;9.388;2023-09-19T10:00:52;2.08;;;0.88;;
34481;SDS011;20720;48.886;9.388;2023-09-19T10:03:23;5.40;;;1.08;;
34481;SDS011;20720;48.886;9.388;2023-09-19T10:05:57;2.40;;;1.00;;
34481;SDS011;20720;48.886;9.388;2023-09-19T10:08:23;3.10;;;0.90;;
34481;SDS011;20720;48.886;9.388;2023-09-19T10:10:48;2.05;;;0.88;;
34481;SDS011;20720;48.886;9.388;2023-09-19T10:13:28;1.63;;;0.80;;
34481;SDS011;20720;48.886;9.388;2023-09-19T10:15:55;4.32;;;0.80;;
34481;SDS011;20720;48.886;9.388;2023-09-19T10:18:24;3.53;;;0.95;;
34481;SDS011;20720;48.886;9.388;2023-09-19T10:20:50;6.85;;;1.10;;
34481;SDS011;20720;48.886;9.388;2023-09-19T10:23:17;2.95;;;0.80;;
34481;SDS011;20720;48.886;9.388;2023-09-19T10:25:50;3.38;;;0.80;;
34481;SDS011;20720;48.886;9.388;2023-09-19T10:28:17;1.33;;;0.60;;
34481;SDS011;20720;48.886;9.388;2023-09-19T10:30:47;2.40;;;0.88;;
34481;SDS011;20720;48.886;9.388;2023-09-19T10:33:15;1.73;;;0.80;;
34481;SDS011;20720;48.886;9.388;2023-09-19T10:35:43;1.63;;;0.60;;
34481;SDS011;20720;48.886;9.388;2023-09-19T10:38:10;2.25;;;1.00;;
34481;SDS011;20720;48.886;9.388;2023-09-19T10:40:37;2.15;;;0.85;;
34481;SDS011;20720;48.886;9.388;2023-09-19T10:43:08;2.30;;;0.85;;
34481;SDS011;20720;48.886;9.388;2023-09-19T10:45:37;1.98;;;0.90;;
34481;SDS011;20720;48.886;9.388;2023-09-19T10:48:04;1.98;;;0.90;;
34481;SDS011;20720;48.886;9.388;2023-09-19T10:50:41;2.28;;;0.80;;
34481;SDS011;20720;48.886;9.388;2023-09-19T10:53:14;1.55;;;0.70;;
34481;SDS011;20720;48.886;9.388;2023-09-19T10:55:41;3.67;;;0.60;;
34481;SDS011;20720;48.886;9.388;2023-09-19T10:58:24;3.28;;;0.80;;
34481;SDS011;20720;48.886;9.388;2023-09-19T11:00:53;3.05;;;0.90;;
34481;SDS011;20720;48.886;9.388;2023-09-19T11:03:21;1.70;;;0.60;;
34481;SDS011;20720;48.886;9.388;2023-09-19T11:09:00;3.00;;;0.90;;
34481;SDS011;20720;48.886;9.388;2023-09-19T11:14:47;1.50;;;0.73;;
34481;SDS011;20720;48.886;9.388;2023-09-19T11:30:45;1.23;;;0.60;;
34481;SDS011;20720;48.886;9.388;2023-09-19T11:33:26;1.23;;;0.55;;
34481;SDS011;20720;48.886;9.388;2023-09-19T11:36:09;2.03;;;0.60;;
34481;SDS011;20720;48.886;9.388;2023-09-19T11:43:45;1.80;;;0.70;;
34481;SDS011;20720;48.886;9.388;2023-09-19T11:46:11;1.95;;;0.73;;
34481;SDS011;20720;48.886;9.388;2023-09-19T11:48:38;2.17;;;0.60;;
34481;SDS011;20720;48.886;9.388;2023-09-19T11:51:09;4.32;;;0.70;;
34481;SDS011;20720;48.886;9.388;2023-09-19T11:53:40;1.42;;;0.60;;
34481;SDS011;20720;48.886;9.388;2023-09-19T11:56:08;2.13;;;0.70;;
34481;SDS011;20720;48.886;9.388;2023-09-19T11:58:35;2.20;;;0.82;;
34481;SDS011;20720;48.886;9.388;2023-09-19T12:01:02;1.92;;;0.90;;
34481;SDS011;20720;48.886;9.388;2023-09-19T12:03:33;1.67;;;0.68;;
34481;SDS011;20720;48.886;9.388;2023-09-19T12:06:10;2.17;;;0.70;;
34481;SDS011;20720;48.886;9.388;2023-09-19T12:08:38;3.58;;;0.70;;
34481;SDS011;20720;48.886;9.388;2023-09-19T12:11:04;1.60;;;0.80;;
34481;SDS011;20720;48.886;9.388;2023-09-19T12:13:33;1.40;;;0.60;;
34481;SDS011;20720;48.886;9.388;2023-09-19T12:15:59;1.90;;;0.80;;
34481;SDS011;20720;48.886;9.388;2023-09-19T12:18:26;2.78;;;0.93;;
34481;SDS011;20720;48.886;9.388;2023-09-19T12:20:55;1.58;;;0.70;;
34481;SDS011;20720;48.886;9.388;2023-09-19T12:23:20;1.02;;;0.47;;
34481;SDS011;20720;48.886;9.388;2023-09-19T12:25:46;2.60;;;0.70;;
34481;SDS011;20720;48.886;9.388;2023-09-19T12:28:12;2.50;;;0.90;;
34481;SDS011;20720;48.886;9.388;2023-09-19T12:30:38;1.70;;;0.70;;
34481;SDS011;20720;48.886;9.388;2023-09-19T12:33:14;1.38;;;0.73;;
34481;SDS011;20720;48.886;9.388;2023-09-19T12:35:41;3.15;;;0.80;;
34481;SDS011;20720;48.886;9.388;2023-09-19T12:38:08;2.13;;;0.73;;
34481;SDS011;20720;48.886;9.388;2023-09-19T12:40:35;1.92;;;0.80;;
34481;SDS011;20720;48.886;9.388;2023-09-19T12:43:02;1.65;;;0.77;;
34481;SDS011;20720;48.886;9.388;2023-09-19T12:45:32;1.80;;;0.80;;
34481;SDS011;20720;48.886;9.388;2023-09-19T12:51:10;1.95;;;0.70;;
34481;SDS011;20720;48.886;9.388;2023-09-19T12:53:44;1.77;;;0.60;;
34481;SDS011;20720;48.886;9.388;2023-09-19T12:56:14;3.08;;;0.60;;
34481;SDS011;20720;48.886;9.388;2023-09-19T12:58:50;1.48;;;0.70;;
34481;SDS011;20720;48.886;9.388;2023-09-19T13:01:28;2.03;;;0.90;;
34481;SDS011;20720;48.886;9.388;2023-09-19T13:04:13;3.50;;;0.77;;
34481;SDS011;20720;48.886;9.388;2023-09-19T13:06:46;2.10;;;0.73;;
34481;SDS011;20720;48.886;9.388;2023-09-19T13:09:13;1.65;;;0.75;;
34481;SDS011;20720;48.886;9.388;2023-09-19T13:11:39;2.08;;;0.75;;
34481;SDS011;20720;48.886;9.388;2023-09-19T13:14:23;1.55;;;0.70;;
34481;SDS011;20720;48.886;9.388;2023-09-19T13:16:56;3.22;;;0.90;;
34481;SDS011;20720;48.886;9.388;2023-09-19T13:20:04;3.72;;;0.85;;
34481;SDS011;20720;48.886;9.388;2023-09-19T13:22:38;1.42;;;0.63;;
34481;SDS011;20720;48.886;9.388;2023-09-19T13:25:12;3.88;;;0.80;;
34481;SDS011;20720;48.886;9.388;2023-09-19T13:27:48;2.45;;;0.95;;
34481;SDS011;20720;48.886;9.388;2023-09-19T13:30:19;5.18;;;0.70;;
34481;SDS011;20720;48.886;9.388;2023-09-19T13:32:45;2.10;;;0.80;;
34481;SDS011;20720;48.886;9.388;2023-09-19T13:35:12;1.80;;;0.63;;
34481;SDS011;20720;48.886;9.388;2023-09-19T13:37:38;2.05;;;0.77;;
34481;SDS011;20720;48.886;9.388;2023-09-19T13:40:11;1.60;;;0.70;;
34481;SDS011;20720;48.886;9.388;2023-09-19T13:42:37;2.22;;;0.82;;
34481;SDS011;20720;48.886;9.388;2023-09-19T13:45:03;1.40;;;0.60;;
34481;SDS011;20720;48.886;9.388;2023-09-19T13:47:35;2.03;;;0.70;;
34481;SDS011;20720;48.886;9.388;2023-09-19T13:50:03;2.25;;;0.82;;
34481;SDS011;20720;48.886;9.388;2023-09-19T13:52:29;1.15;;;0.60;;
34481;SDS011;20720;48.886;9.388;2023-09-19T13:54:56;2.00;;;0.60;;
34481;SDS011;20720;48.886;9.388;2023-09-19T13:57:22;2.78;;;0.82;;
34481;SDS011;20720;48.886;9.388;2023-09-19T13:59:48;1.75;;;0.80;;
34481;SDS011;20720;48.886;9.388;2023-09-19T14:02:13;1.90;;;0.70;;
34481;SDS011;20720;48.886;9.388;2023-09-19T14:04:39;1.75;;;0.70;;
34481;SDS011;20720;48.886;9.388;2023-09-19T14:07:05;1.58;;;0.55;;
34481;SDS011;20720;48.886;9.388;2023-09-19T14:09:32;2.30;;;0.80;;
34481;SDS011;20720;48.886;9.388;2023-09-19T14:11:57;1.90;;;0.77;;
34481;SDS011;20720;48.886;9.388;2023-09-19T14:14:22;1.97;;;0.60;;
34481;SDS011;20720;48.886;9.388;2023-09-19T14:16:48;1.42;;;0.73;;
34481;SDS011;20720;48.886;9.388;2023-09-19T14:19:13;1.65;;;0.70;;
34481;SDS011;20720;48.886;9.388;2023-09-19T14:21:41;1.27;;;0.70;;
34481;SDS011;20720;48.886;9.388;2023-09-19T14:24:07;2.30;;;0.70;;
34481;SDS011;20720;48.886;9.388;2023-09-19T14:26:35;2.05;;;0.70;;
34481;SDS011;20720;48.886;9.388;2023-09-19T14:29:01;2.28;;;0.80;;
34481;SDS011;20720;48.886;9.388;2023-09-19T14:31:26;1.83;;;0.77;;
34481;SDS011;20720;48.886;9.388;2023-09-19T14:33:55;1.48;;;0.68;;
34481;SDS011;20720;48.886;9.388;2023-09-19T14:36:21;2.03;;;0.80;;
34481;SDS011;20720;48.886;9.388;2023-09-19T14:38:47;2.30;;;0.82;;
34481;SDS011;20720;48.886;9.388;2023-09-19T14:41:13;1.70;;;0.85;;
34481;SDS011;20720;48.886;9.388;2023-09-19T14:43:38;1.35;;;0.75;;
34481;SDS011;20720;48.886;9.388;2023-09-19T14:46:04;1.65;;;0.63;;
34481;SDS011;20720;48.886;9.388;2023-09-19T14:48:30;2.25;;;0.80;;
34481;SDS011;20720;48.886;9.388;2023-09-19T14:50:55;2.58;;;0.80;;
34481;SDS011;20720;48.886;9.388;2023-09-19T14:53:26;1.70;;;0.73;;
34481;SDS011;20720;48.886;9.388;2023-09-19T14:55:52;4.60;;;1.20;;
34481;SDS011;20720;48.886;9.388;2023-09-19T14:58:19;2.85;;;0.70;;
34481;SDS011;20720;48.886;9.388;2023-09-19T15:00:46;3.35;;;0.80;;
34481;SDS011;20720;48.886;9.388;2023-09-19T15:03:11;2.25;;;0.80;;
34481;SDS011;20720;48.886;9.388;2023-09-19T15:05:37;2.00;;;0.80;;
34481;SDS011;20720;48.886;9.388;2023-09-19T15:08:02;1.95;;;0.95;;
34481;SDS011;20720;48.886;9.388;2023-09-19T15:10:27;4.10;;;0.70;;
34481;SDS011;20720;48.886;9.388;2023-09-19T15:12:53;2.20;;;0.70;;
34481;SDS011;20720;48.886;9.388;2023-09-19T15:15:18;1.05;;;0.50;;
34481;SDS011;20720;48.886;9.388;2023-09-19T15:17:43;1.70;;;0.77;;
34481;SDS011;20720;48.886;9.388;2023-09-19T15:20:09;1.50;;;0.80;;
34481;SDS011;20720;48.886;9.388;2023-09-19T15:22:38;1.52;;;0.80;;
34481;SDS011;20720;48.886;9.388;2023-09-19T15:25:04;1.75;;;0.80;;
34481;SDS011;20720;48.886;9.388;2023-09-19T15:27:30;1.88;;;0.88;;
34481;SDS011;20720;48.886;9.388;2023-09-19T15:29:57;1.48;;;0.73;;
34481;SDS011;20720;48.886;9.388;2023-09-19T15:32:27;1.90;;;0.80;;